Time;durP1;ratioP1;P1;durP2;ratioP2;P2;SDS_P1;SDS_P2;PMS_P1;PMS_P2;Temp;Humidity;BMP_temperature;BMP_pressure;BME280_temperature;BME280_humidity;BME280_pressure;Samples;Min_cycle;Max_cycle;Signal;HPM_P1;HPM_P2
2021/12/16 00:02:35;;;;;;;38.78;22.38;;;8.10;99.90;;;;;;5002721;28;20046;-72
2021/12/16 00:05:21;;;;;;;;;;;8.10;99.90;;;;;;4992833;28;20038;-71
2021/12/16 00:08:04;;;;;;;38.95;23.08;;;8.00;99.90;;;;;;5009472;28;19928;-71
2021/12/16 00:10:37;;;;;;;44.03;25.63;;;8.00;99.90;;;;;;5010862;28;20056;-71
2021/12/16 00:30:50;;;;;;;49.25;29.25;;;8.20;99.90;;;;;;4990699;28;20054;-71
2021/12/16 00:32:43;;;;;;;41.97;26.65;;;8.20;99.90;;;;;;4982810;28;20500;-71
2021/12/16 00:35:09;;;;;;;52.40;27.73;;;8.20;99.90;;;;;;5009990;28;20053;-71
2021/12/16 00:37:35;;;;;;;;;;;8.20;99.90;;;;;;5010533;28;20084;-71
2021/12/16 00:40:00;;;;;;;53.03;26.45;;;8.20;99.90;;;;;;5009504;28;20011;-71
2021/12/16 00:55:46;;;;;;;42.75;27.25;;;8.30;99.90;;;;;;4991288;28;20583;-71
2021/12/16 00:58:13;;;;;;;49.90;29.00;;;8.40;99.90;;;;;;4990013;28;20552;-72
2021/12/16 01:00:40;;;;;;;52.05;27.45;;;8.40;99.90;;;;;;4989690;28;20129;-71
2021/12/16 01:06:24;;;;;;;43.92;25.65;;;8.40;99.90;;;;;;4980766;28;20046;-71
2021/12/16 01:36:19;;;;;;;58.20;29.77;;;8.40;99.90;;;;;;5010439;28;20108;-71
2021/12/16 01:39:39;;;;;;;43.42;25.73;;;8.40;99.90;;;;;;5009351;28;20049;-71
2021/12/16 01:50:04;;;;;;;41.60;25.63;;;8.30;99.90;;;;;;4996658;28;20125;-71
2021/12/16 01:52:50;;;;;;;41.83;26.55;;;8.30;99.90;;;;;;4989127;28;20050;-72
2021/12/16 01:55:30;;;;;;;48.55;25.52;;;8.30;99.90;;;;;;4990645;28;20077;-72
2021/12/16 01:58:01;;;;;;;45.05;25.20;;;8.20;99.90;;;;;;4991140;28;20370;-71
2021/12/16 02:00:44;;;;;;;54.60;27.17;;;8.20;99.90;;;;;;4990261;28;20125;-71
2021/12/16 02:03:10;;;;;;;44.38;26.10;;;8.10;99.90;;;;;;4990496;28;20124;-72
2021/12/16 02:10:41;;;;;;;45.53;24.88;;;8.00;99.90;;;;;;5011590;28;20049;-72
2021/12/16 02:32:26;;;;;;;48.78;28.42;;;7.90;99.90;;;;;;5012336;28;20142;-71
2021/12/16 02:35:31;;;;;;;51.33;29.27;;;7.90;99.90;;;;;;5012899;28;20092;-72
2021/12/16 02:37:48;;;;;;;57.25;29.70;;;7.90;99.90;;;;;;5008441;28;20404;-71
2021/12/16 02:40:17;;;;;;;53.70;28.08;;;7.90;99.90;;;;;;5012493;28;20045;-72
2021/12/16 02:42:57;;;;;;;52.25;28.48;;;7.90;99.90;;;;;;5012031;28;20052;-71
2021/12/16 02:50:54;;;;;;;50.97;28.70;;;7.90;99.90;;;;;;4991589;28;20058;-72
2021/12/16 02:53:20;;;;;;;55.30;30.02;;;8.00;99.90;;;;;;5007232;28;20048;-72
2021/12/16 02:55:46;;;;;;;55.30;28.95;;;8.00;99.90;;;;;;5012895;28;20045;-72
2021/12/16 02:58:13;;;;;;;56.13;29.95;;;8.00;99.90;;;;;;5011524;28;20081;-71
2021/12/16 03:00:44;;;;;;;62.38;31.05;;;8.00;99.90;;;;;;5012751;28;20077;-72
2021/12/16 03:03:09;;;;;;;56.60;30.33;;;8.00;99.90;;;;;;5011209;28;20060;-71
2021/12/16 03:05:35;;;;;;;47.33;29.07;;;8.00;99.90;;;;;;4998489;28;20042;-71
2021/12/16 03:08:01;;;;;;;59.88;31.92;;;8.00;99.90;;;;;;4993375;28;20335;-71
2021/12/16 03:13:01;;;;;;;57.70;31.52;;;8.10;99.90;;;;;;4992742;28;20158;-71
2021/12/16 03:18:21;;;;;;;62.60;32.35;;;8.10;99.90;;;;;;4992946;28;20050;-71
2021/12/16 03:20:55;;;;;;;62.72;31.38;;;8.10;99.90;;;;;;4991615;28;20077;-71
2021/12/16 03:23:46;;;;;;;61.10;31.67;;;8.10;99.90;;;;;;4990641;28;20082;-71
2021/12/16 03:37:15;;;;;;;60.28;32.50;;;8.10;99.90;;;;;;4992620;28;20058;-74
2021/12/16 03:39:59;;;;;;;55.97;31.30;;;8.10;99.90;;;;;;4991246;28;20092;-73
2021/12/16 03:42:34;;;;;;;69.93;33.47;;;8.10;99.90;;;;;;5009694;28;20510;-74
2021/12/16 03:46:24;;;;;;;58.25;31.50;;;8.10;99.90;;;;;;5012317;28;20056;-72
2021/12/16 03:47:55;;;;;;;59.45;32.85;;;8.10;99.90;;;;;;5009649;28;20052;-71
2021/12/16 03:50:21;;;;;;;64.57;31.70;;;8.10;99.90;;;;;;5008011;28;20516;-71
2021/12/16 03:52:48;;;;;;;59.65;31.85;;;8.10;99.90;;;;;;5009803;28;20557;-71
2021/12/16 03:55:15;;;;;;;62.17;32.38;;;8.10;99.90;;;;;;5009868;28;20056;-71
2021/12/16 03:57:42;;;;;;;61.47;33.85;;;8.10;99.90;;;;;;5011285;28;20172;-72
2021/12/16 04:00:10;;;;;;;;;;;8.10;99.90;;;;;;4979928;28;20104;-72
2021/12/16 04:02:36;;;;;;;62.08;31.63;;;8.10;99.90;;;;;;4992821;28;19925;-71
2021/12/16 04:05:04;;;;;;;61.97;31.90;;;8.10;99.90;;;;;;5011877;28;20096;-71
2021/12/16 04:07:32;;;;;;;62.25;32.00;;;8.10;99.90;;;;;;5010158;28;20120;-71
2021/12/16 04:09:59;;;;;;;62.38;33.33;;;8.10;99.90;;;;;;5009876;28;20050;-73
2021/12/16 04:12:27;;;;;;;57.97;32.22;;;8.10;99.90;;;;;;5010971;28;20398;-73
2021/12/16 04:14:56;;;;;;;60.55;33.63;;;8.20;99.90;;;;;;5009378;28;20049;-73
2021/12/16 04:17:27;;;;;;;65.95;35.50;;;8.20;99.90;;;;;;4990654;28;20042;-73
2021/12/16 04:19:54;;;;;;;63.00;34.05;;;8.10;99.90;;;;;;4991806;28;20396;-74
2021/12/16 04:22:32;;;;;;;63.85;32.22;;;8.20;99.90;;;;;;4990022;28;20096;-74
2021/12/16 04:25:02;;;;;;;64.78;34.30;;;8.20;99.90;;;;;;4990875;28;20046;-71
2021/12/16 04:27:29;;;;;;;61.15;33.28;;;8.20;99.90;;;;;;4991597;28;20444;-71
2021/12/16 04:29:55;;;;;;;63.03;33.55;;;8.20;99.90;;;;;;4991558;28;20049;-71
2021/12/16 04:32:21;;;;;;;68.38;34.20;;;8.20;99.90;;;;;;4991737;28;20043;-71
2021/12/16 04:34:47;;;;;;;65.63;31.90;;;8.20;99.90;;;;;;4991396;28;20050;-71
2021/12/16 04:37:14;;;;;;;59.33;32.13;;;8.20;99.90;;;;;;4990367;28;20121;-71
2021/12/16 04:39:42;;;;;;;62.83;31.52;;;8.20;99.90;;;;;;4991643;28;20073;-73
2021/12/16 04:42:10;;;;;;;59.25;30.25;;;8.20;99.90;;;;;;4991014;28;20042;-74
2021/12/16 04:44:35;;;;;;;69.03;33.38;;;8.20;99.90;;;;;;4989834;28;20070;-73
2021/12/16 04:47:03;;;;;;;65.53;34.90;;;8.20;99.90;;;;;;4991206;28;20081;-71
2021/12/16 04:49:29;;;;;;;61.58;32.85;;;8.20;99.90;;;;;;5000984;28;20077;-71
2021/12/16 04:51:58;;;;;;;66.73;34.97;;;8.20;99.90;;;;;;5015939;28;20084;-71
2021/12/16 04:54:25;;;;;;;70.50;34.08;;;8.30;99.90;;;;;;5028653;28;20315;-71
2021/12/16 04:56:52;;;;;;;68.40;35.85;;;8.30;99.90;;;;;;5030653;28;20400;-71
2021/12/16 04:59:20;;;;;;;65.03;35.10;;;8.30;99.90;;;;;;5016392;28;20046;-71
2021/12/16 05:01:50;;;;;;;62.28;34.40;;;8.30;99.90;;;;;;5010087;28;20041;-71
2021/12/16 05:04:15;;;;;;;64.38;31.92;;;8.30;99.90;;;;;;5010167;28;20041;-71
2021/12/16 05:06:41;;;;;;;65.37;33.27;;;8.30;99.90;;;;;;5008946;28;20614;-71
2021/12/16 05:09:11;;;;;;;63.73;33.33;;;8.30;99.90;;;;;;5010326;28;20435;-71
2021/12/16 05:11:37;;;;;;;62.70;32.88;;;8.30;99.90;;;;;;5009044;28;20518;-71
2021/12/16 05:14:04;;;;;;;59.58;33.05;;;8.30;99.90;;;;;;4998947;28;20046;-71
2021/12/16 05:16:30;;;;;;;65.75;33.67;;;8.30;99.90;;;;;;4991206;28;20054;-71
2021/12/16 05:18:56;;;;;;;62.42;31.55;;;8.30;99.90;;;;;;4989635;28;20042;-71
2021/12/16 05:24:27;;;;;;;65.80;32.92;;;8.30;99.90;;;;;;4970851;28;20137;-71
2021/12/16 05:27:00;;;;;;;64.65;33.33;;;8.30;99.90;;;;;;5007832;28;20045;-71
2021/12/16 05:29:26;;;;;;;63.53;32.80;;;8.30;99.90;;;;;;5010364;28;20046;-71
2021/12/16 05:31:53;;;;;;;67.63;33.45;;;8.30;99.90;;;;;;5010253;28;20075;-71
2021/12/16 05:34:20;;;;;;;62.92;31.85;;;8.30;99.90;;;;;;5008744;28;20313;-74
2021/12/16 05:36:46;;;;;;;61.13;33.00;;;8.30;99.90;;;;;;5010771;28;20046;-73
2021/12/16 05:39:13;;;;;;;61.70;32.00;;;8.30;99.90;;;;;;5010611;28;20049;-74
2021/12/16 05:41:39;;;;;;;60.53;31.67;;;8.30;99.90;;;;;;5010167;28;20280;-74
2021/12/16 05:44:05;;;;;;;70.15;34.92;;;8.20;99.90;;;;;;5010113;28;20396;-74
2021/12/16 05:46:31;;;;;;;63.33;32.83;;;8.20;99.90;;;;;;5012069;28;20046;-74
2021/12/16 05:48:58;;;;;;;;;;;8.20;99.90;;;;;;5008206;28;20042;-72
2021/12/16 05:51:28;;;;;;;68.18;33.83;;;8.20;99.90;;;;;;4994484;28;19926;-72
2021/12/16 05:53:55;;;;;;;64.05;33.33;;;8.30;99.90;;;;;;4994377;28;20555;-72
2021/12/16 05:56:21;;;;;;;71.30;34.03;;;8.30;99.90;;;;;;4993078;28;20034;-72
2021/12/16 05:58:48;;;;;;;61.65;32.60;;;8.30;99.90;;;;;;4995039;28;20448;-71
2021/12/16 06:01:18;;;;;;;68.65;33.55;;;8.30;99.90;;;;;;5003658;28;20052;-72
2021/12/16 06:03:45;;;;;;;72.18;35.78;;;8.30;99.90;;;;;;5012195;28;20405;-72
2021/12/16 06:06:12;;;;;;;70.35;34.53;;;8.30;99.90;;;;;;5012841;28;20061;-71
2021/12/16 06:08:37;;;;;;;68.32;34.85;;;8.30;99.90;;;;;;5013997;28;20042;-71
2021/12/16 06:13:42;;;;;;;61.58;33.40;;;8.30;99.90;;;;;;5013247;28;20084;-72
2021/12/16 06:27:16;;;;;;;65.20;33.33;;;8.30;99.90;;;;;;5013547;28;20046;-72
2021/12/16 06:29:46;;;;;;;66.78;32.97;;;8.30;99.90;;;;;;5012483;28;20054;-71
2021/12/16 06:32:12;;;;;;;65.82;33.80;;;8.40;99.90;;;;;;5011628;28;20045;-71
2021/12/16 06:34:39;;;;;;;70.07;34.83;;;8.30;99.90;;;;;;5012851;28;20647;-71
2021/12/16 06:37:06;;;;;;;63.22;33.33;;;8.30;99.90;;;;;;5011892;28;20069;-71
2021/12/16 06:39:31;;;;;;;64.50;34.03;;;8.30;99.90;;;;;;5013186;28;20101;-71
2021/12/16 06:41:58;;;;;;;62.57;35.97;;;8.30;99.90;;;;;;5012844;28;20038;-71
2021/12/16 06:44:30;;;;;;;64.00;32.13;;;8.30;99.90;;;;;;5012427;28;20772;-71
2021/12/16 06:47:04;;;;;;;65.25;33.38;;;8.30;99.90;;;;;;5011999;28;20559;-71
2021/12/16 06:49:31;;;;;;;66.68;32.95;;;8.30;99.90;;;;;;5003529;28;20050;-71
2021/12/16 06:52:02;;;;;;;59.20;32.67;;;8.30;99.90;;;;;;4992178;28;20046;-71
2021/12/16 06:54:38;;;;;;;68.55;34.05;;;8.30;99.90;;;;;;4993130;28;20073;-71
2021/12/16 06:59:42;;;;;;;61.70;33.47;;;8.30;99.90;;;;;;4993219;28;20069;-71
2021/12/16 07:02:17;;;;;;;69.70;35.45;;;8.40;99.90;;;;;;4991800;28;20050;-71
2021/12/16 07:04:43;;;;;;;64.55;33.40;;;8.30;99.90;;;;;;4991835;28;20496;-72
2021/12/16 07:07:11;;;;;;;72.50;34.08;;;8.30;99.90;;;;;;4992089;28;20054;-72
2021/12/16 07:09:37;;;;;;;62.10;34.20;;;8.30;99.90;;;;;;4993122;28;20089;-71
2021/12/16 07:12:04;;;;;;;;;;;8.30;99.90;;;;;;4993580;28;20050;-71
2021/12/16 07:14:38;;;;;;;66.65;34.65;;;8.30;99.90;;;;;;4991519;28;19929;-71
2021/12/16 07:17:15;;;;;;;70.40;35.38;;;8.30;99.90;;;;;;4993457;28;20108;-71
2021/12/16 07:19:42;;;;;;;62.67;31.88;;;8.40;99.90;;;;;;4993002;28;20053;-71
2021/12/16 07:22:09;;;;;;;62.88;33.45;;;8.30;99.90;;;;;;4992664;28;20042;-71
2021/12/16 07:24:35;;;;;;;61.97;33.72;;;8.30;99.90;;;;;;4991035;28;20125;-72
2021/12/16 07:27:01;;;;;;;70.82;33.45;;;8.30;99.90;;;;;;4991649;28;20057;-71
2021/12/16 07:29:27;;;;;;;61.53;32.53;;;8.30;99.90;;;;;;4992570;28;20058;-72
2021/12/16 07:31:54;;;;;;;65.95;33.22;;;8.30;99.90;;;;;;4991439;28;20046;-71
2021/12/16 07:34:20;;;;;;;67.43;33.75;;;8.30;99.90;;;;;;4974757;28;20417;-71
2021/12/16 07:36:46;;;;;;;65.53;34.00;;;8.30;99.90;;;;;;4992613;28;20050;-72
2021/12/16 07:39:15;;;;;;;64.57;34.80;;;8.30;99.90;;;;;;4992708;28;20041;-72
2021/12/16 07:41:46;;;;;;;62.33;33.55;;;8.30;99.90;;;;;;4992488;28;20042;-71
2021/12/16 07:44:12;;;;;;;65.03;34.33;;;8.30;99.90;;;;;;4990668;28;20046;-71
2021/12/16 07:46:44;;;;;;;63.70;32.95;;;8.30;99.90;;;;;;4992461;28;20404;-71
2021/12/16 07:49:12;;;;;;;69.70;31.23;;;8.30;99.90;;;;;;4997859;28;20041;-72
2021/12/16 07:51:40;;;;;;;65.05;34.60;;;8.30;99.90;;;;;;5011569;28;20056;-72
2021/12/16 07:54:06;;;;;;;61.05;32.45;;;8.30;99.90;;;;;;5010864;28;20045;-72
2021/12/16 07:56:33;;;;;;;61.15;32.67;;;8.30;99.90;;;;;;5010251;28;20034;-72
2021/12/16 07:58:58;;;;;;;;;;;8.20;99.90;;;;;;5012216;28;20081;-71
2021/12/16 08:01:26;;;;;;;55.35;30.13;;;8.20;99.90;;;;;;4999806;28;20251;-71
2021/12/16 08:03:52;;;;;;;58.95;30.60;;;8.20;99.90;;;;;;5002091;28;20080;-71
2021/12/16 08:06:23;;;;;;;53.95;30.30;;;8.20;99.90;;;;;;5000752;28;20086;-72
2021/12/16 08:08:51;;;;;;;60.55;32.08;;;8.20;99.90;;;;;;4990414;28;20097;-71
2021/12/16 08:11:17;;;;;;;62.80;33.38;;;8.10;99.90;;;;;;5006651;28;20469;-71
2021/12/16 08:13:43;;;;;;;;;;;8.20;99.90;;;;;;5002682;28;20134;-71
2021/12/16 08:16:09;;;;;;;52.92;29.80;;;8.10;99.90;;;;;;4992175;28;20016;-72
2021/12/16 08:18:34;;;;;;;47.20;29.20;;;8.10;99.90;;;;;;4994893;28;20054;-72
2021/12/16 08:21:00;;;;;;;43.33;26.20;;;8.10;99.90;;;;;;4991937;28;20038;-71
2021/12/16 08:23:26;;;;;;;48.17;25.95;;;8.10;99.90;;;;;;4990488;28;20042;-72
2021/12/16 08:25:52;;;;;;;44.25;26.30;;;8.00;99.90;;;;;;4991989;28;20082;-71
2021/12/16 08:28:17;;;;;;;51.97;27.73;;;7.90;99.90;;;;;;4991927;28;20038;-71
2021/12/16 08:30:46;;;;;;;45.22;26.63;;;7.90;99.90;;;;;;4998691;28;20409;-71
2021/12/16 08:33:13;;;;;;;49.33;26.20;;;7.90;99.90;;;;;;5011070;28;20049;-71
2021/12/16 08:35:45;;;;;;;52.58;29.95;;;7.90;99.90;;;;;;5010239;28;20100;-71
2021/12/16 08:38:13;;;;;;;49.08;27.88;;;7.80;99.90;;;;;;5010265;28;20064;-71
2021/12/16 08:40:42;;;;;;;49.88;29.13;;;7.80;99.90;;;;;;5008323;28;20072;-71
2021/12/16 08:43:10;;;;;;;58.92;29.75;;;7.80;99.90;;;;;;4993660;28;20060;-72
2021/12/16 08:45:36;;;;;;;64.00;32.10;;;7.80;99.90;;;;;;4991358;28;20057;-72
2021/12/16 08:48:03;;;;;;;74.38;35.88;;;7.80;99.90;;;;;;5006150;28;20068;-71
2021/12/16 08:50:33;;;;;;;76.63;36.50;;;7.80;99.90;;;;;;4999954;28;20045;-71
2021/12/16 08:53:00;;;;;;;77.82;36.83;;;7.90;99.90;;;;;;5000226;28;20042;-71
2021/12/16 08:55:28;;;;;;;85.68;34.35;;;7.90;99.90;;;;;;5005319;28;20046;-71
2021/12/16 08:57:56;;;;;;;77.13;34.80;;;7.90;99.90;;;;;;4993937;28;20496;-71
2021/12/16 09:00:26;;;;;;;82.30;33.72;;;7.90;99.90;;;;;;5007723;28;20096;-70
2021/12/16 09:02:52;;;;;;;86.50;35.30;;;8.00;99.90;;;;;;4993616;28;20049;-70
2021/12/16 09:05:20;;;;;;;78.80;35.75;;;8.00;99.90;;;;;;4995381;28;20039;-70
2021/12/16 09:07:48;;;;;;;80.90;32.95;;;8.00;99.90;;;;;;5001057;28;20085;-70
2021/12/16 09:10:21;;;;;;;85.57;37.92;;;8.00;99.90;;;;;;5001423;28;20057;-70
2021/12/16 09:12:52;;;;;;;120.25;37.83;;;8.10;99.90;;;;;;5005964;28;20571;-70
2021/12/16 09:15:20;;;;;;;107.05;36.53;;;8.10;99.90;;;;;;5009749;28;20054;-70
2021/12/16 09:17:46;;;;;;;95.63;35.33;;;8.10;99.90;;;;;;5006467;28;20053;-70
2021/12/16 09:20:12;;;;;;;96.57;33.75;;;8.10;99.90;;;;;;5010070;28;20227;-70
2021/12/16 09:22:38;;;;;;;88.55;33.85;;;8.20;99.90;;;;;;5003911;28;20510;-71
2021/12/16 09:25:05;;;;;;;88.40;31.73;;;8.20;99.90;;;;;;5009335;28;20053;-71
2021/12/16 09:27:30;;;;;;;118.72;34.53;;;8.20;99.90;;;;;;5012147;28;20141;-71
2021/12/16 09:29:57;;;;;;;83.97;32.63;;;8.20;99.90;;;;;;5011575;28;20139;-71
2021/12/16 09:32:26;;;;;;;96.43;37.10;;;8.30;99.90;;;;;;5012603;28;20046;-71
2021/12/16 09:34:52;;;;;;;94.53;36.88;;;8.30;99.90;;;;;;5012855;28;20229;-71
2021/12/16 09:37:17;;;;;;;75.57;30.30;;;8.40;99.90;;;;;;5012834;28;20407;-71
2021/12/16 09:39:43;;;;;;;80.03;33.57;;;8.40;99.90;;;;;;5012007;28;20543;-72
2021/12/16 09:42:09;;;;;;;89.23;32.43;;;8.50;99.90;;;;;;5011990;28;20054;-71
2021/12/16 09:44:36;;;;;;;62.60;28.42;;;8.50;99.90;;;;;;5007527;28;20103;-71
2021/12/16 09:47:05;;;;;;;63.00;30.85;;;8.50;99.90;;;;;;5003738;28;20050;-70
2021/12/16 09:49:30;;;;;;;87.95;43.65;;;8.50;99.90;;;;;;5005734;28;20456;-70
2021/12/16 09:51:58;;;;;;;77.72;41.25;;;8.50;99.90;;;;;;5012709;28;20053;-71
2021/12/16 09:54:28;;;;;;;82.75;38.22;;;8.40;99.90;;;;;;5012912;28;20045;-70
2021/12/16 09:56:55;;;;;;;77.55;42.88;;;8.40;99.90;;;;;;5001189;28;20049;-70
2021/12/16 09:59:23;;;;;;;72.70;32.50;;;8.40;99.90;;;;;;5012542;28;20046;-68
2021/12/16 10:01:52;;;;;;;61.55;31.40;;;8.40;99.90;;;;;;5012726;28;20437;-70
2021/12/16 10:04:20;;;;;;;60.53;30.08;;;8.50;99.90;;;;;;4995261;28;20070;-71
2021/12/16 10:06:48;;;;;;;63.20;29.00;;;8.50;99.90;;;;;;5013156;28;20045;-71
2021/12/16 10:09:14;;;;;;;76.68;31.83;;;8.50;99.90;;;;;;5013069;28;20080;-71
2021/12/16 10:11:43;;;;;;;90.85;40.08;;;8.50;99.90;;;;;;5012814;28;20078;-71
2021/12/16 10:19:27;;;;;;;61.00;29.13;;;8.60;99.90;;;;;;5011638;28;20136;-72
2021/12/16 10:21:54;;;;;;;92.68;33.95;;;8.60;99.90;;;;;;5011298;28;20468;-69
2021/12/16 10:24:32;;;;;;;134.90;38.90;;;8.60;99.90;;;;;;5012857;28;20073;-70
2021/12/16 10:27:06;;;;;;;73.90;33.63;;;8.60;99.90;;;;;;5012520;28;20050;-72
2021/12/16 10:29:48;;;;;;;73.15;33.10;;;8.60;99.90;;;;;;5011925;28;20053;-70
2021/12/16 10:32:42;;;;;;;76.53;33.80;;;8.60;99.90;;;;;;4993845;28;20238;-71
2021/12/16 10:35:17;;;;;;;65.43;31.90;;;8.60;99.90;;;;;;4993244;28;20050;-70
2021/12/16 10:37:49;;;;;;;62.63;30.58;;;8.60;99.90;;;;;;5004076;28;20046;-70
2021/12/16 10:40:23;;;;;;;73.85;33.45;;;8.70;99.90;;;;;;5001240;28;20531;-71
2021/12/16 10:42:49;;;;;;;60.28;30.42;;;8.70;99.90;;;;;;5009833;28;20100;-70
2021/12/16 10:45:49;;;;;;;46.17;25.15;;;8.70;99.90;;;;;;5010376;28;20046;-70
2021/12/16 10:48:20;;;;;;;58.70;28.23;;;8.70;99.90;;;;;;4989644;28;20089;-71
2021/12/16 10:50:59;;;;;;;55.53;27.60;;;8.70;99.90;;;;;;4991619;28;20065;-71
2021/12/16 10:53:52;;;;;;;61.92;29.90;;;8.70;99.90;;;;;;4997549;28;20088;-70
2021/12/16 10:56:40;;;;;;;65.15;30.27;;;8.70;99.90;;;;;;5011634;28;20129;-73
2021/12/16 10:59:08;;;;;;;57.08;27.85;;;8.80;99.90;;;;;;4997887;28;20089;-73
2021/12/16 11:01:52;;;;;;;51.13;28.33;;;8.80;99.90;;;;;;5011628;28;20083;-73
2021/12/16 11:04:26;;;;;;;47.97;26.17;;;8.80;99.90;;;;;;5005041;28;20056;-73
2021/12/16 11:07:03;;;;;;;57.58;27.73;;;8.80;99.90;;;;;;5011705;28;20053;-73
2021/12/16 11:09:34;;;;;;;;;;;8.80;99.90;;;;;;5011233;28;20046;-73
2021/12/16 11:12:12;;;;;;;48.00;25.95;;;8.80;99.90;;;;;;5008327;28;19960;-71
2021/12/16 11:14:41;;;;;;;48.80;25.08;;;8.90;99.90;;;;;;5008989;28;20048;-70
2021/12/16 11:17:10;;;;;;;49.08;25.67;;;8.80;99.90;;;;;;5010103;28;20049;-70
2021/12/16 11:19:47;;;;;;;47.85;24.88;;;8.80;99.90;;;;;;5011011;28;20064;-71
2021/12/16 11:22:16;;;;;;;65.60;27.42;;;8.80;99.90;;;;;;5005255;28;20038;-71
2021/12/16 11:24:42;;;;;;;52.47;25.33;;;8.80;99.90;;;;;;5009218;28;20069;-71
2021/12/16 11:27:21;;;;;;;52.70;26.55;;;8.80;99.90;;;;;;5006071;28;20053;-73
2021/12/16 11:29:47;;;;;;;51.42;24.70;;;8.70;99.90;;;;;;5007524;28;20224;-75
2021/12/16 11:32:43;;;;;;;56.75;25.70;;;8.70;99.90;;;;;;5006346;28;20172;-75
2021/12/16 11:35:34;;;;;;;55.10;23.80;;;8.70;99.90;;;;;;4996236;28;20042;-75
2021/12/16 11:38:06;;;;;;;44.90;25.00;;;8.70;99.90;;;;;;5001821;28;20050;-76
2021/12/16 11:40:57;;;;;;;50.25;23.98;;;8.70;99.90;;;;;;4987664;28;20115;-79
2021/12/16 11:43:36;;;;;;;43.95;23.77;;;8.70;99.90;;;;;;5005734;28;20373;-74
2021/12/16 11:46:07;;;;;;;45.90;24.75;;;8.70;99.90;;;;;;5005512;28;20149;-72
2021/12/16 11:48:36;;;;;;;50.38;24.17;;;8.70;99.90;;;;;;4998418;28;20096;-71
2021/12/16 11:51:16;;;;;;;45.80;24.00;;;8.70;99.90;;;;;;5004852;28;20057;-71
2021/12/16 11:53:52;;;;;;;49.10;24.55;;;8.70;99.90;;;;;;5001992;28;20308;-71
2021/12/16 11:56:20;;;;;;;49.70;24.77;;;8.70;99.90;;;;;;5007348;28;20045;-71
2021/12/16 11:58:47;;;;;;;53.38;27.00;;;8.70;99.90;;;;;;5007946;28;20314;-70
2021/12/16 12:01:20;;;;;;;55.08;27.38;;;8.70;99.90;;;;;;5009743;28;20129;-70
2021/12/16 12:03:47;;;;;;;58.75;25.13;;;8.70;99.90;;;;;;5007933;28;20055;-71
2021/12/16 12:06:26;;;;;;;56.00;26.83;;;8.70;99.90;;;;;;5013760;28;20049;-70
2021/12/16 12:08:54;;;;;;;55.90;25.73;;;8.70;99.90;;;;;;5005258;28;20396;-70
2021/12/16 12:11:26;;;;;;;54.90;27.13;;;8.70;99.90;;;;;;4991705;28;20046;-70
2021/12/16 12:14:02;;;;;;;68.53;27.90;;;8.70;99.90;;;;;;4989946;28;20485;-70
2021/12/16 12:16:35;;;;;;;68.50;29.80;;;8.70;99.90;;;;;;5001164;28;20092;-71
2021/12/16 12:19:09;;;;;;;66.80;27.52;;;8.80;99.90;;;;;;5011308;28;20305;-70
2021/12/16 12:21:45;;;;;;;72.35;28.85;;;8.80;99.90;;;;;;5001899;28;20057;-70
2021/12/16 12:24:33;;;;;;;62.22;28.90;;;8.80;99.90;;;;;;4992246;28;20039;-70
2021/12/16 12:27:04;;;;;;;60.60;26.05;;;8.80;99.90;;;;;;5000545;28;20046;-70
2021/12/16 12:29:31;;;;;;;53.92;27.15;;;8.80;99.90;;;;;;5001661;28;20476;-72
2021/12/16 12:32:10;;;;;;;67.47;28.67;;;8.90;99.90;;;;;;5010706;28;20049;-71
2021/12/16 12:34:37;;;;;;;59.72;29.42;;;8.90;99.90;;;;;;5008339;28;20046;-71
2021/12/16 12:37:09;;;;;;;59.38;28.77;;;8.90;99.90;;;;;;5009178;28;20085;-71
2021/12/16 12:39:42;;;;;;;60.58;27.35;;;8.90;99.90;;;;;;5008562;28;20435;-71
2021/12/16 12:42:09;;;;;;;54.72;26.80;;;8.90;99.90;;;;;;5008982;28;20515;-71
2021/12/16 12:44:35;;;;;;;58.05;24.48;;;8.90;99.90;;;;;;5006619;28;20046;-71
2021/12/16 12:47:04;;;;;;;54.15;23.95;;;8.90;99.90;;;;;;5005064;28;20048;-71
2021/12/16 12:49:30;;;;;;;51.70;25.60;;;8.90;99.90;;;;;;4998256;28;20042;-71
2021/12/16 12:52:23;;;;;;;57.92;26.85;;;8.90;99.90;;;;;;4990193;28;20069;-70
2021/12/16 12:55:01;;;;;;;56.33;26.15;;;8.90;99.90;;;;;;5007468;28;20054;-71
2021/12/16 12:57:31;;;;;;;59.92;24.70;;;8.90;99.90;;;;;;5009494;28;20045;-71
2021/12/16 12:59:57;;;;;;;55.80;24.33;;;8.90;99.90;;;;;;4998924;28;20071;-71
2021/12/16 13:02:29;;;;;;;;;;;8.90;99.90;;;;;;4990917;28;20046;-70
2021/12/16 13:04:59;;;;;;;49.33;22.10;;;8.90;99.90;;;;;;4990900;28;19921;-71
2021/12/16 13:07:35;;;;;;;43.13;20.48;;;8.90;99.90;;;;;;5010560;28;20244;-70
2021/12/16 13:10:10;;;;;;;46.78;22.33;;;8.90;99.90;;;;;;4992571;28;20373;-70
2021/12/16 13:12:42;;;;;;;52.15;22.65;;;8.90;99.90;;;;;;5010377;28;20428;-71
2021/12/16 13:15:27;;;;;;;49.47;24.10;;;8.90;99.90;;;;;;5009302;28;20439;-70
2021/12/16 13:23:33;;;;;;;61.92;27.00;;;8.80;99.90;;;;;;4989169;28;20050;-70
2021/12/16 13:26:32;;;;;;;59.38;26.92;;;8.90;99.90;;;;;;5002514;28;20038;-70
2021/12/16 13:29:10;;;;;;;56.90;26.70;;;8.90;99.90;;;;;;5008729;28;20037;-71
2021/12/16 13:31:49;;;;;;;68.80;29.02;;;8.90;99.90;;;;;;5007904;28;20053;-70
2021/12/16 13:34:35;;;;;;;50.47;24.80;;;8.80;99.90;;;;;;4999442;28;20043;-71
2021/12/16 13:37:07;;;;;;;55.97;26.33;;;8.80;99.90;;;;;;5010069;28;20367;-70
2021/12/16 13:39:41;;;;;;;52.83;25.48;;;8.80;99.90;;;;;;5008709;28;20041;-71
2021/12/16 13:42:14;;;;;;;62.72;26.23;;;8.80;99.90;;;;;;5009870;28;20136;-70
2021/12/16 13:44:47;;;;;;;66.97;27.25;;;8.80;99.90;;;;;;5007283;28;20049;-70
2021/12/16 13:47:29;;;;;;;57.63;26.70;;;8.80;99.90;;;;;;5003091;28;20100;-70
2021/12/16 14:07:23;;;;;;;67.70;29.83;;;8.80;99.90;;;;;;5010650;28;20073;-72
2021/12/16 14:10:20;;;;;;;80.90;30.30;;;8.80;99.90;;;;;;5004509;28;20054;-71
2021/12/16 14:16:17;;;;;;;65.95;26.80;;;8.80;99.90;;;;;;4974047;28;20054;-70
2021/12/16 14:38:55;;;;;;;75.35;28.15;;;8.80;99.90;;;;;;5010822;28;20078;-72
2021/12/16 14:46:44;;;;;;;70.38;28.95;;;8.80;99.90;;;;;;4992399;28;20046;-72
2021/12/16 14:49:10;;;;;;;73.43;28.38;;;8.80;99.90;;;;;;5011265;28;20076;-73
2021/12/16 14:51:35;;;;;;;62.00;27.23;;;8.80;99.90;;;;;;5012949;28;20453;-72
2021/12/16 14:54:01;;;;;;;78.57;29.03;;;8.80;99.90;;;;;;4994845;28;20104;-72
2021/12/16 15:03:54;;;;;;;140.88;34.88;;;8.70;99.90;;;;;;5000459;28;20026;-73
2021/12/16 15:06:31;;;;;;;112.47;34.75;;;8.70;99.90;;;;;;5008774;28;20046;-72
2021/12/16 15:09:48;;;;;;;116.15;34.33;;;8.70;99.90;;;;;;5010310;28;20042;-72
2021/12/16 15:12:16;;;;;;;97.28;31.70;;;8.70;99.90;;;;;;5006036;28;20054;-72
2021/12/16 15:15:04;;;;;;;;;;;8.70;99.90;;;;;;5003776;28;20057;-72
2021/12/16 15:37:10;;;;;;;85.50;31.95;;;8.70;99.90;;;;;;5011522;28;20076;-71
2021/12/16 15:40:08;;;;;;;69.22;29.00;;;8.60;99.90;;;;;;5011595;28;20050;-72
2021/12/16 15:43:10;;;;;;;91.07;32.63;;;8.60;99.90;;;;;;5010082;28;20967;-74
2021/12/16 15:45:48;;;;;;;85.47;30.00;;;8.60;99.90;;;;;;4999910;28;20078;-73
2021/12/16 15:48:27;;;;;;;92.93;33.55;;;8.60;99.90;;;;;;5005400;28;20508;-73
2021/12/16 15:51:04;;;;;;;104.95;32.58;;;8.50;99.90;;;;;;5013287;28;20096;-73
2021/12/16 15:53:36;;;;;;;;;;;8.50;99.90;;;;;;5003212;28;20423;-73
2021/12/16 15:56:07;;;;;;;116.57;31.92;;;8.50;99.90;;;;;;5011352;28;19929;-73
2021/12/16 15:59:00;;;;;;;110.03;29.55;;;8.50;99.90;;;;;;5011801;28;20124;-73
2021/12/16 16:01:47;;;;;;;134.65;30.90;;;8.40;99.90;;;;;;5009920;28;20484;-73
2021/12/16 16:04:26;;;;;;;85.73;24.67;;;8.40;99.90;;;;;;5001846;28;20089;-73
2021/12/16 16:06:57;;;;;;;90.25;25.67;;;8.30;99.90;;;;;;5009963;28;20635;-73
2021/12/16 16:09:25;;;;;;;47.38;22.23;;;8.30;99.90;;;;;;5010315;28;20084;-73
2021/12/16 16:11:53;;;;;;;47.95;23.10;;;8.20;99.90;;;;;;5009995;28;20069;-73
2021/12/16 16:14:23;;;;;;;55.33;24.02;;;8.20;99.90;;;;;;5010695;28;20049;-74
2021/12/16 16:16:53;;;;;;;80.65;23.60;;;8.20;99.90;;;;;;5009473;28;20045;-72
2021/12/16 16:19:34;;;;;;;105.20;26.60;;;8.20;99.90;;;;;;5011833;28;20124;-72
2021/12/16 16:22:03;;;;;;;90.10;26.05;;;8.10;99.90;;;;;;5009459;28;20054;-72
2021/12/16 16:24:36;;;;;;;49.88;22.40;;;8.20;99.90;;;;;;5009343;28;20041;-72
2021/12/16 16:27:09;;;;;;;53.78;21.20;;;8.10;99.90;;;;;;5010076;28;20037;-72
2021/12/16 16:29:36;;;;;;;45.65;21.75;;;8.10;99.90;;;;;;5008223;28;20415;-72
2021/12/16 16:32:03;;;;;;;63.30;22.48;;;8.20;99.90;;;;;;5009478;28;20041;-72
2021/12/16 16:34:32;;;;;;;50.75;22.33;;;8.20;99.90;;;;;;5008103;28;20034;-72
2021/12/16 16:37:02;;;;;;;58.65;21.52;;;8.20;99.90;;;;;;5009480;28;20124;-72
2021/12/16 16:39:32;;;;;;;61.78;22.67;;;8.20;99.90;;;;;;5009270;28;20048;-72
2021/12/16 16:42:01;;;;;;;58.47;20.63;;;8.20;99.90;;;;;;5010831;28;20048;-72